Time;durP1;ratioP1;P1;durP2;ratioP2;P2;SDS_P1;SDS_P2;PMS_P1;PMS_P2;Temp;Humidity;BMP_temperature;BMP_pressure;BME280_temperature;BME280_humidity;BME280_pressure;Samples;Min_cycle;Max_cycle;Signal;HPM_P1;HPM_P2
2023/08/02 00:02:17;;;;;;;14.48;7.97;;;;;;;;;;5028705;28;20029;-75
2023/08/02 00:04:44;;;;;;;11.32;6.90;;;;;;;;;;5031703;28;20049;-75
2023/08/02 00:07:12;;;;;;;13.02;7.43;;;;;;;;;;5032688;28;20368;-75
2023/08/02 00:09:38;;;;;;;13.27;7.43;;;;;;;;;;5031904;28;20115;-75
2023/08/02 00:12:04;;;;;;;12.32;7.13;;;;;;;;;;5032887;28;20455;-75
2023/08/02 00:14:30;;;;;;;14.13;8.05;;;;;;;;;;5031712;28;20037;-75
2023/08/02 00:16:56;;;;;;;15.35;7.55;;;;;;;;;;5032589;28;20014;-75
2023/08/02 00:19:22;;;;;;;13.68;8.10;;;;;;;;;;5031356;28;20031;-76
2023/08/02 00:21:48;;;;;;;16.17;8.20;;;;;;;;;;5032044;28;20105;-76
2023/08/02 00:24:14;;;;;;;11.48;6.82;;;;;;;;;;5032084;28;20455;-75
2023/08/02 00:26:40;;;;;;;13.25;7.43;;;;;;;;;;5032873;28;20033;-76
2023/08/02 00:29:06;;;;;;;16.13;8.13;;;26.10;1.00;;;;;;5027375;28;20029;-76
2023/08/02 00:31:33;;;;;;;12.45;7.45;;;25.90;99.90;;;;;;5032246;28;20073;-75
2023/08/02 00:33:58;;;;;;;13.00;7.60;;;25.90;99.90;;;;;;5027608;28;20045;-75
2023/08/02 00:36:24;;;;;;;12.13;7.22;;;25.70;99.90;;;;;;5024438;28;20388;-76
2023/08/02 00:38:50;;;;;;;11.65;7.25;;;25.80;99.90;;;;;;5024788;28;20033;-75
2023/08/02 00:41:17;;;;;;;13.90;7.57;;;;;;;;;;5026231;28;20017;-75
2023/08/02 00:43:45;;;;;;;13.57;7.38;;;25.80;1.00;;;;;;5031851;28;20040;-76
2023/08/02 00:46:13;;;;;;;15.65;7.10;;;25.80;1.00;;;;;;5031140;28;20036;-75
2023/08/02 00:48:40;;;;;;;13.85;6.75;;;25.80;1.00;;;;;;5031857;28;20025;-76
2023/08/02 00:51:12;;;;;;;11.38;6.88;;;25.80;1.00;;;;;;5020346;28;20029;-76
2023/08/02 00:53:38;;;;;;;11.77;7.18;;;25.80;1.00;;;;;;5012831;28;20021;-75
2023/08/02 00:56:04;;;;;;;10.95;7.03;;;25.80;1.00;;;;;;5030097;28;20534;-76
2023/08/02 00:58:30;;;;;;;10.80;6.93;;;25.80;1.00;;;;;;5030891;28;20041;-76
2023/08/02 01:01:06;;;;;;;11.63;6.95;;;25.80;1.00;;;;;;5030303;28;20073;-75
2023/08/02 01:03:38;;;;;;;11.20;6.93;;;25.80;1.00;;;;;;5028231;28;20038;-75
2023/08/02 01:06:37;;;;;;;14.48;7.15;;;25.80;1.00;;;;;;5032368;28;20035;-75
2023/08/02 01:09:26;;;;;;;13.43;7.07;;;25.90;1.00;;;;;;5030594;28;20030;-75
2023/08/02 01:12:03;;;;;;;10.82;7.10;;;25.90;1.00;;;;;;5024042;28;20021;-75
2023/08/02 01:14:32;;;;;;;10.65;7.07;;;26.00;99.90;;;;;;5035383;28;20029;-75
2023/08/02 01:16:59;;;;;;;9.95;6.20;;;26.00;99.90;;;;;;5035920;28;20177;-76
2023/08/02 01:19:25;;;;;;;10.32;7.07;;;25.90;99.90;;;;;;5032277;28;20391;-75
2023/08/02 01:21:50;;;;;;;11.77;7.05;;;25.90;99.90;;;;;;5032385;28;20025;-75
2023/08/02 01:24:17;;;;;;;15.85;7.47;;;26.00;99.90;;;;;;5027381;28;20052;-75
2023/08/02 01:26:47;;;;;;;10.68;6.80;;;25.90;99.90;;;;;;5034114;28;20018;-75
2023/08/02 01:29:19;;;;;;;12.35;7.38;;;26.10;99.90;;;;;;5034503;28;20037;-75
2023/08/02 01:35:08;;;;;;;12.48;7.18;;;26.00;99.90;;;;;;5034215;28;20208;-76
2023/08/02 01:37:37;;;;;;;13.20;7.07;;;25.80;99.90;;;;;;5033360;28;20095;-76
2023/08/02 01:40:04;;;;;;;11.48;6.50;;;25.80;99.90;;;;;;5034678;28;20049;-75
2023/08/02 01:46:04;;;;;;;11.70;6.90;;;25.90;99.90;;;;;;5034830;28;20128;-75
2023/08/02 01:48:33;;;;;;;11.45;7.47;;;25.80;99.90;;;;;;5035024;28;20053;-75
2023/08/02 01:50:58;;;;;;;11.68;6.20;;;25.80;99.90;;;;;;5026422;28;20116;-75
2023/08/02 01:53:24;;;;;;;11.60;7.28;;;25.90;99.90;;;;;;5032306;28;20061;-75
2023/08/02 01:55:50;;;;;;;12.80;7.43;;;26.00;99.90;;;;;;5034155;28;20017;-75
2023/08/02 01:58:25;;;;;;;13.10;6.85;;;25.90;99.90;;;;;;5029072;28;20018;-76
2023/08/02 02:00:50;;;;;;;12.30;7.05;;;25.80;99.90;;;;;;5033912;28;20036;-76
2023/08/02 02:03:16;;;;;;;12.88;6.88;;;25.90;99.90;;;;;;5033800;28;20050;-76
2023/08/02 02:05:56;;;;;;;14.85;7.07;;;25.80;99.90;;;;;;5021380;28;20022;-76
2023/08/02 02:08:22;;;;;;;12.45;6.70;;;25.60;99.90;;;;;;5034764;28;20505;-76
2023/08/02 02:10:53;;;;;;;14.40;6.78;;;25.60;99.90;;;;;;5033652;28;20018;-76
2023/08/02 02:13:20;;;;;;;13.60;6.55;;;25.70;99.90;;;;;;5034537;28;20539;-76
2023/08/02 02:15:48;;;;;;;10.38;6.38;;;25.80;99.90;;;;;;5034520;28;20409;-76
2023/08/02 02:18:14;;;;;;;10.20;6.60;;;25.90;99.90;;;;;;5025116;28;20029;-75
2023/08/02 02:20:40;;;;;;;12.40;6.85;;;25.80;99.90;;;;;;5031806;28;20021;-75
2023/08/02 02:23:06;;;;;;;11.73;6.78;;;25.80;99.90;;;;;;5027002;28;20028;-76
2023/08/02 02:25:31;;;;;;;12.73;6.55;;;25.90;99.90;;;;;;5028908;28;20034;-75
2023/08/02 02:27:57;;;;;;;12.20;7.43;;;25.90;99.90;;;;;;5032757;28;20356;-76
2023/08/02 02:30:23;;;;;;;11.93;6.43;;;26.10;99.90;;;;;;5030785;28;20025;-75
2023/08/02 02:32:49;;;;;;;10.82;6.93;;;25.90;99.90;;;;;;5034362;28;20383;-75
2023/08/02 02:35:15;;;;;;;12.05;7.07;;;26.10;99.90;;;;;;5030256;28;20065;-75
2023/08/02 02:37:41;;;;;;;10.10;6.63;;;26.20;99.90;;;;;;5027238;28;20026;-75
2023/08/02 02:40:08;;;;;;;11.95;6.78;;;26.20;99.90;;;;;;5024410;28;20057;-76
2023/08/02 02:42:34;;;;;;;9.57;5.97;;;26.30;99.90;;;;;;5031563;28;20034;-75
2023/08/02 02:45:00;;;;;;;11.75;6.82;;;26.20;99.90;;;;;;5033829;28;20106;-76
2023/08/02 02:47:26;;;;;;;12.90;7.10;;;26.20;99.90;;;;;;5019867;28;20029;-75
2023/08/02 02:49:52;;;;;;;8.85;6.07;;;26.10;99.90;;;;;;5031906;28;20032;-75
2023/08/02 02:52:17;;;;;;;11.38;6.22;;;26.00;99.90;;;;;;5029233;28;20030;-76
2023/08/02 02:54:43;;;;;;;9.18;5.93;;;26.00;99.90;;;;;;5026977;28;20368;-76
2023/08/02 02:57:09;;;;;;;10.35;5.65;;;25.90;99.90;;;;;;5024938;28;20439;-77
2023/08/02 02:59:38;;;;;;;14.85;6.80;;;25.80;99.90;;;;;;5025733;28;20035;-76
2023/08/02 03:02:04;;;;;;;11.40;6.40;;;25.90;99.90;;;;;;5033720;28;20025;-76
2023/08/02 03:04:29;;;;;;;11.90;6.53;;;25.70;99.90;;;;;;5031908;28;20117;-76
2023/08/02 03:06:55;;;;;;;11.73;6.68;;;25.70;99.90;;;;;;5027130;28;20025;-76
2023/08/02 03:09:21;;;;;;;12.98;6.18;;;25.70;99.90;;;;;;5023218;28;20385;-76
2023/08/02 03:11:46;;;;;;;14.23;6.45;;;25.60;99.90;;;;;;5033542;28;20443;-76
2023/08/02 03:14:12;;;;;;;10.88;6.35;;;25.50;99.90;;;;;;5032641;28;20025;-76
2023/08/02 03:16:38;;;;;;;13.63;6.53;;;25.60;99.90;;;;;;5032197;28;20037;-75
2023/08/02 03:19:05;;;;;;;13.38;7.43;;;25.60;99.90;;;;;;5032707;28;20021;-76
2023/08/02 03:21:32;;;;;;;13.43;6.65;;;25.50;99.90;;;;;;5032840;28;20071;-75
2023/08/02 03:23:57;;;;;;;14.90;6.55;;;25.40;99.90;;;;;;5021923;28;20029;-76
2023/08/02 03:26:23;;;;;;;10.50;6.05;;;25.50;99.90;;;;;;5025755;28;20034;-76
2023/08/02 03:28:49;;;;;;;10.38;5.93;;;25.40;99.90;;;;;;5029937;28;20034;-76
2023/08/02 03:31:14;;;;;;;13.18;6.97;;;25.50;99.90;;;;;;5030890;28;20460;-75
2023/08/02 03:33:41;;;;;;;10.02;6.78;;;25.30;99.90;;;;;;5027796;28;20021;-76
2023/08/02 03:36:07;;;;;;;12.10;6.88;;;25.20;99.90;;;;;;5025135;28;20551;-76
2023/08/02 03:38:33;;;;;;;12.43;6.35;;;25.30;99.90;;;;;;5030442;28;20145;-75
2023/08/02 03:40:58;;;;;;;13.45;7.03;;;25.20;99.90;;;;;;5032728;28;20037;-76
2023/08/02 03:43:24;;;;;;;13.10;6.45;;;25.10;99.90;;;;;;5033040;28;20136;-76
2023/08/02 03:45:50;;;;;;;12.15;7.18;;;25.20;99.90;;;;;;5032509;28;20468;-76
2023/08/02 03:48:16;;;;;;;12.70;6.45;;;25.20;99.90;;;;;;5028814;28;20084;-76
2023/08/02 03:50:42;;;;;;;10.65;6.40;;;25.20;99.90;;;;;;5028374;28;20388;-75
2023/08/02 03:53:08;;;;;;;11.63;6.88;;;25.20;99.90;;;;;;5026546;28;20541;-75
2023/08/02 03:55:33;;;;;;;12.85;7.03;;;25.10;99.90;;;;;;5032102;28;20026;-76
2023/08/02 03:57:59;;;;;;;13.02;7.00;;;25.20;99.90;;;;;;5028139;28;20034;-75
2023/08/02 04:00:25;;;;;;;11.00;6.75;;;25.10;99.90;;;;;;5016666;28;20026;-76
2023/08/02 04:02:50;;;;;;;13.40;7.03;;;25.30;99.90;;;;;;5031587;28;20057;-75
2023/08/02 04:05:16;;;;;;;14.07;7.25;;;25.30;99.90;;;;;;5032695;28;20044;-76
2023/08/02 04:07:42;;;;;;;15.05;8.13;;;25.30;99.90;;;;;;5030575;28;20029;-75
2023/08/02 04:10:08;;;;;;;12.00;7.30;;;25.20;99.90;;;;;;5016724;28;20514;-75
2023/08/02 04:12:34;;;;;;;14.75;8.18;;;25.30;99.90;;;;;;5030324;28;20076;-76
2023/08/02 04:14:59;;;;;;;15.23;9.90;;;25.20;99.90;;;;;;5030779;28;20068;-76
2023/08/02 04:17:25;;;;;;;14.60;10.25;;;25.00;99.90;;;;;;5032466;28;20163;-75
2023/08/02 04:19:51;;;;;;;18.77;11.10;;;25.00;99.90;;;;;;5024480;28;20033;-76
2023/08/02 04:22:17;;;;;;;16.40;11.57;;;25.10;99.90;;;;;;5025798;28;20446;-75
2023/08/02 04:24:42;;;;;;;18.80;12.20;;;25.20;99.90;;;;;;5031793;28;20124;-75
2023/08/02 04:27:08;;;;;;;15.85;11.82;;;25.10;99.90;;;;;;5028141;28;20057;-76
2023/08/02 04:29:34;;;;;;;15.43;12.65;;;25.00;99.90;;;;;;5018539;28;20034;-76
2023/08/02 04:31:59;;;;;;;18.00;13.00;;;25.00;99.90;;;;;;5032403;28;20033;-76
2023/08/02 04:34:25;;;;;;;19.92;13.48;;;25.00;99.90;;;;;;5031330;28;20029;-75
2023/08/02 04:36:52;;;;;;;16.05;13.80;;;24.80;99.90;;;;;;5030754;28;20425;-75
2023/08/02 04:39:18;;;;;;;14.57;13.07;;;24.90;99.90;;;;;;5030250;28;20092;-76
2023/08/02 04:41:57;;;;;;;15.07;13.27;;;24.90;99.90;;;;;;5032247;28;20025;-76
2023/08/02 04:44:23;;;;;;;15.07;13.57;;;24.90;99.90;;;;;;5034350;28;20041;-76
2023/08/02 04:46:48;;;;;;;14.13;12.65;;;24.90;99.90;;;;;;5050824;28;20434;-75
2023/08/02 04:49:14;;;;;;;13.68;12.27;;;24.90;99.90;;;;;;5035116;28;20026;-76
2023/08/02 04:51:40;;;;;;;15.20;11.80;;;25.00;99.90;;;;;;5023727;28;20166;-75
2023/08/02 04:54:09;;;;;;;15.25;12.75;;;24.80;99.90;;;;;;5025193;28;20040;-76
2023/08/02 04:56:35;;;;;;;14.48;11.40;;;24.90;99.90;;;;;;5034311;28;20026;-75
2023/08/02 04:59:00;;;;;;;12.55;11.30;;;24.80;99.90;;;;;;5016654;28;20033;-75
2023/08/02 05:01:26;;;;;;;12.07;10.77;;;24.90;99.90;;;;;;5018995;28;20502;-76
2023/08/02 05:03:52;;;;;;;10.10;9.20;;;24.90;99.90;;;;;;5027340;28;20049;-76
2023/08/02 05:06:18;;;;;;;11.05;9.73;;;25.00;99.90;;;;;;5025948;28;20179;-76
2023/08/02 05:08:44;;;;;;;11.82;10.57;;;24.90;99.90;;;;;;5027987;28;20104;-75
2023/08/02 05:11:10;;;;;;;10.15;9.07;;;24.80;99.90;;;;;;5035497;28;20030;-75
2023/08/02 05:13:36;;;;;;;9.98;8.98;;;24.70;99.90;;;;;;5035258;28;20039;-75
2023/08/02 05:16:01;;;;;;;10.80;9.30;;;24.80;99.90;;;;;;5033948;28;20026;-75
2023/08/02 05:18:28;;;;;;;9.30;8.40;;;24.80;99.90;;;;;;5035392;28;20545;-76
2023/08/02 05:20:54;;;;;;;12.15;9.65;;;24.80;99.90;;;;;;5030002;28;20080;-76
2023/08/02 05:23:20;;;;;;;11.60;10.38;;;24.80;99.90;;;;;;5030760;28;20058;-75
2023/08/02 05:25:45;;;;;;;14.85;10.80;;;24.80;99.90;;;;;;5028687;28;20076;-75
2023/08/02 05:28:11;;;;;;;8.00;7.20;;;24.80;99.90;;;;;;5026540;28;20394;-76
2023/08/02 05:30:37;;;;;;;8.75;7.80;;;24.70;99.90;;;;;;5022279;28;20026;-75
2023/08/02 05:33:03;;;;;;;7.63;7.03;;;24.70;99.90;;;;;;5035083;28;20025;-75
2023/08/02 05:35:30;;;;;;;8.48;7.60;;;24.60;99.90;;;;;;5025517;28;20389;-76
2023/08/02 05:37:56;;;;;;;12.60;7.53;;;24.80;99.90;;;;;;5027238;28;20433;-76
2023/08/02 05:40:22;;;;;;;9.32;6.30;;;24.80;99.90;;;;;;5030223;28;20029;-76
2023/08/02 05:42:48;;;;;;;6.22;5.68;;;24.70;99.90;;;;;;5030643;28;20025;-75
2023/08/02 05:45:14;;;;;;;5.82;5.03;;;24.60;99.90;;;;;;5031760;28;20041;-75
2023/08/02 05:47:40;;;;;;;7.55;4.75;;;24.70;99.90;;;;;;5034635;28;20033;-76
2023/08/02 05:50:06;;;;;;;7.85;5.00;;;24.60;99.90;;;;;;5025624;28;20026;-75
2023/08/02 05:52:32;;;;;;;10.05;8.45;;;24.70;99.90;;;;;;5024526;28;20064;-75
2023/08/02 05:55:01;;;;;;;7.07;5.38;;;24.70;99.90;;;;;;5027544;28;20061;-76
2023/08/02 05:57:26;;;;;;;6.75;6.05;;;24.80;99.90;;;;;;5023380;28;20146;-76
2023/08/02 05:59:52;;;;;;;6.22;5.63;;;24.70;99.90;;;;;;5027582;28;20060;-76
2023/08/02 06:02:18;;;;;;;6.95;4.90;;;24.90;99.90;;;;;;5035469;28;20030;-76
2023/08/02 06:04:45;;;;;;;9.77;8.65;;;24.90;99.90;;;;;;5034547;28;20060;-76
2023/08/02 06:07:11;;;;;;;12.63;10.35;;;24.90;99.90;;;;;;5035061;28;20017;-76
2023/08/02 06:09:36;;;;;;;6.50;4.72;;;25.00;99.90;;;;;;5035117;28;20112;-76
2023/08/02 06:12:02;;;;;;;8.40;4.90;;;25.00;99.90;;;;;;5034833;28;20603;-77
2023/08/02 06:14:28;;;;;;;11.32;9.68;;;25.00;99.90;;;;;;5034618;28;20518;-77
2023/08/02 06:16:54;;;;;;;8.85;7.95;;;25.10;99.90;;;;;;5034423;28;20463;-77
2023/08/02 06:19:19;;;;;;;8.95;5.30;;;25.10;99.90;;;;;;5034447;28;20075;-77
2023/08/02 06:21:45;;;;;;;9.77;7.78;;;25.20;99.90;;;;;;5035709;28;20083;-76
2023/08/02 06:24:11;;;;;;;12.55;10.88;;;25.30;99.90;;;;;;5020376;28;20033;-77
2023/08/02 06:26:37;;;;;;;5.93;4.43;;;25.30;99.90;;;;;;5034442;28;20105;-76
2023/08/02 06:29:03;;;;;;;6.80;5.53;;;25.20;99.90;;;;;;5034314;28;20028;-76
2023/08/02 06:31:28;;;;;;;5.38;4.30;;;25.20;99.90;;;;;;5033704;28;20030;-76
2023/08/02 06:33:54;;;;;;;8.52;5.65;;;25.30;99.90;;;;;;5033482;28;20021;-77
2023/08/02 06:36:20;;;;;;;4.57;3.33;;;25.40;99.90;;;;;;5032881;28;20474;-72
2023/08/02 06:38:46;;;;;;;11.75;7.85;;;25.30;99.90;;;;;;5034051;28;20498;-71
2023/08/02 06:41:12;;;;;;;7.35;6.32;;;25.30;99.90;;;;;;5034190;28;20026;-72
2023/08/02 06:43:37;;;;;;;10.13;5.82;;;25.20;99.90;;;;;;5020306;28;20044;-74
2023/08/02 06:46:04;;;;;;;9.90;7.32;;;25.30;99.90;;;;;;5034325;28;20025;-70
2023/08/02 06:48:30;;;;;;;6.50;3.92;;;25.20;99.90;;;;;;5034294;28;20032;-83
2023/08/02 06:50:56;;;;;;;10.02;4.20;;;25.40;99.90;;;;;;5034088;28;20033;-81
2023/08/02 06:53:21;;;;;;;18.65;15.85;;;25.40;99.90;;;;;;5025737;28;20387;-70
2023/08/02 06:55:47;;;;;;;6.22;5.30;;;25.30;99.90;;;;;;5033790;28;20397;-71
2023/08/02 06:58:13;;;;;;;7.28;4.53;;;25.20;99.90;;;;;;5027011;28;20356;-65
2023/08/02 07:00:40;;;;;;;9.48;8.32;;;25.40;99.90;;;;;;5033717;28;20065;-65
2023/08/02 07:03:06;;;;;;;4.70;4.30;;;25.40;99.90;;;;;;5033238;28;20032;-66
2023/08/02 07:05:33;;;;;;;14.35;11.05;;;25.60;99.90;;;;;;5031808;28;20029;-63
2023/08/02 07:08:05;;;;;;;13.88;11.00;;;25.50;99.90;;;;;;5033435;28;20029;-67
2023/08/02 07:10:31;;;;;;;9.38;7.68;;;25.70;99.90;;;;;;5033749;28;20053;-63
2023/08/02 07:12:57;;;;;;;11.23;7.60;;;25.70;99.90;;;;;;5029780;28;20412;-62
2023/08/02 07:15:22;;;;;;;10.10;6.50;;;25.70;99.90;;;;;;5026376;28;20048;-65
2023/08/02 07:17:49;;;;;;;10.13;5.60;;;25.60;99.90;;;;;;5026904;28;20033;-62
2023/08/02 07:20:15;;;;;;;12.00;8.52;;;25.60;99.90;;;;;;5033476;28;20030;-63
2023/08/02 07:22:43;;;;;;;6.45;5.22;;;25.80;99.90;;;;;;5033377;28;20034;-62
2023/08/02 07:25:21;;;;;;;11.73;8.60;;;25.90;99.90;;;;;;5024174;28;20045;-64
2023/08/02 07:27:49;;;;;;;13.07;8.02;;;25.90;99.90;;;;;;5031886;28;20029;-57
2023/08/02 07:30:14;;;;;;;11.77;8.18;;;25.90;99.90;;;;;;5033309;28;20033;-57
2023/08/02 07:32:41;;;;;;;12.10;8.23;;;25.90;99.90;;;;;;5033430;28;20047;-59
2023/08/02 07:35:07;;;;;;;18.02;12.50;;;26.10;99.90;;;;;;5032035;28;20075;-55
2023/08/02 07:37:33;;;;;;;7.78;6.88;;;26.10;99.90;;;;;;5033457;28;20368;-65
2023/08/02 07:39:58;;;;;;;18.02;11.57;;;26.20;99.90;;;;;;5032977;28;20037;-65
2023/08/02 07:42:24;;;;;;;6.75;5.28;;;26.10;99.90;;;;;;5033081;28;20033;-66
2023/08/02 07:45:05;;;;;;;9.65;6.60;;;26.00;99.90;;;;;;5032762;28;20532;-67
2023/08/02 07:47:32;;;;;;;11.60;8.82;;;25.90;99.90;;;;;;5033295;28;20422;-70
2023/08/02 07:49:58;;;;;;;18.67;13.82;;;26.10;99.90;;;;;;5032945;28;20379;-71
2023/08/02 07:52:23;;;;;;;12.52;10.07;;;26.10;99.90;;;;;;5031790;28;20029;-69
2023/08/02 07:54:53;;;;;;;8.30;5.60;;;26.20;99.90;;;;;;5032923;28;20029;-63
2023/08/02 07:57:19;;;;;;;9.57;7.25;;;26.10;99.90;;;;;;5032934;28;20383;-62
2023/08/02 07:59:46;;;;;;;8.77;5.20;;;26.10;99.90;;;;;;5031584;28;20025;-60
2023/08/02 08:02:12;;;;;;;9.30;6.25;;;26.20;99.90;;;;;;5032801;28;20044;-61
2023/08/02 08:04:38;;;;;;;5.75;4.80;;;26.20;99.90;;;;;;5032748;28;20499;-64
2023/08/02 08:07:04;;;;;;;8.25;5.60;;;26.20;99.90;;;;;;5032855;28;20079;-65
2023/08/02 08:09:30;;;;;;;8.55;7.20;;;26.20;99.90;;;;;;5032932;28;20108;-67
2023/08/02 08:11:55;;;;;;;6.13;4.93;;;26.30;99.90;;;;;;5032778;28;20056;-64
2023/08/02 08:14:21;;;;;;;11.27;8.27;;;26.40;99.90;;;;;;5032838;28;20410;-65
2023/08/02 08:16:47;;;;;;;12.70;9.02;;;26.30;99.90;;;;;;5036584;28;20108;-69
2023/08/02 08:19:14;;;;;;;8.40;5.75;;;26.20;99.90;;;;;;5035673;28;20382;-62
2023/08/02 08:21:40;;;;;;;12.23;8.68;;;26.40;99.90;;;;;;5034756;28;20018;-67
2023/08/02 08:24:06;;;;;;;8.88;4.03;;;26.40;99.90;;;;;;5032668;28;20080;-67
2023/08/02 08:26:32;;;;;;;24.30;20.42;;;26.40;99.90;;;;;;5048634;28;20108;-67
2023/08/02 08:28:58;;;;;;;8.88;5.47;;;26.50;99.90;;;;;;5036166;28;20057;-67
2023/08/02 08:31:23;;;;;;;23.63;18.75;;;26.60;99.90;;;;;;5032048;28;20021;-67
2023/08/02 08:33:49;;;;;;;6.18;4.97;;;26.50;99.90;;;;;;5034114;28;20030;-64
2023/08/02 08:36:15;;;;;;;13.32;10.23;;;26.60;99.90;;;;;;5032496;28;20466;-62
2023/08/02 08:38:41;;;;;;;18.90;14.98;;;26.60;99.90;;;;;;5027044;28;20048;-63
2023/08/02 08:41:07;;;;;;;9.77;5.20;;;26.70;99.90;;;;;;5031821;28;20476;-63
2023/08/02 08:43:33;;;;;;;10.02;5.57;;;26.70;99.90;;;;;;5033395;28;20029;-63
2023/08/02 08:46:00;;;;;;;21.67;14.90;;;26.70;99.90;;;;;;5024950;28;20037;-68
2023/08/02 08:48:27;;;;;;;13.80;11.85;;;26.70;99.90;;;;;;5061882;28;20136;-66
2023/08/02 08:50:56;;;;;;;8.82;6.10;;;26.60;99.90;;;;;;5029945;28;20029;-65
2023/08/02 08:53:44;;;;;;;9.82;6.80;;;26.70;99.90;;;;;;5035441;28;20095;-65
2023/08/02 08:56:11;;;;;;;12.40;7.22;;;26.70;99.90;;;;;;5028376;28;20037;-66
2023/08/02 09:01:59;;;;;;;36.20;30.73;;;26.80;99.90;;;;;;5030460;28;20454;-61
2023/08/02 09:04:26;;;;;;;6.18;3.80;;;26.80;99.90;;;;;;5025522;28;20045;-61
2023/08/02 09:06:51;;;;;;;7.05;5.05;;;26.90;99.90;;;;;;5026087;28;20056;-61
2023/08/02 09:09:17;;;;;;;8.35;5.95;;;26.90;99.90;;;;;;5032526;28;20064;-63
2023/08/02 09:11:43;;;;;;;17.70;14.43;;;26.90;99.90;;;;;;5034393;28;20028;-66
2023/08/02 09:14:13;;;;;;;9.00;4.72;;;27.00;99.90;;;;;;5020117;28;20092;-63
2023/08/02 09:16:58;;;;;;;9.48;6.28;;;27.00;99.90;;;;;;5023614;28;20403;-62
2023/08/02 09:19:29;;;;;;;8.80;6.50;;;26.90;99.90;;;;;;5027002;28;20030;-62
2023/08/02 09:22:12;;;;;;;11.15;7.40;;;26.90;99.90;;;;;;5028684;28;20017;-61
2023/08/02 09:24:40;;;;;;;11.15;8.63;;;26.90;99.90;;;;;;5022907;28;20038;-63
2023/08/02 09:27:15;;;;;;;7.75;5.75;;;27.00;99.90;;;;;;5032656;28;20021;-67
2023/08/02 09:29:52;;;;;;;11.68;7.50;;;27.10;99.90;;;;;;5027755;28;20029;-64
2023/08/02 09:32:20;;;;;;;11.25;6.88;;;27.10;99.90;;;;;;5029031;28;20029;-65
2023/08/02 09:34:55;;;;;;;12.77;8.05;;;27.10;99.90;;;;;;5033402;28;20025;-71
2023/08/02 09:37:35;;;;;;;14.48;11.20;;;27.20;99.90;;;;;;5027830;28;20025;-75
2023/08/02 09:40:04;;;;;;;15.38;10.38;;;27.40;99.90;;;;;;5032311;28;20075;-64
2023/08/02 09:42:30;;;;;;;27.13;21.15;;;27.50;99.90;;;;;;5027836;28;20756;-62
2023/08/02 09:45:01;;;;;;;10.93;9.82;;;27.60;99.90;;;;;;5034200;28;20061;-60
2023/08/02 09:47:28;;;;;;;13.00;8.30;;;27.70;99.90;;;;;;5028107;28;20030;-73
2023/08/02 09:50:08;;;;;;;18.52;13.63;;;27.70;99.90;;;;;;5018642;28;20030;-74
2023/08/02 09:55:56;;;;;;;8.48;6.07;;;;;;;;;;5035140;28;20068;-64
2023/08/02 09:58:25;;;;;;;10.10;7.22;;;28.00;99.90;;;;;;5031026;28;20104;-65
2023/08/02 10:00:51;;;;;;;11.93;8.68;;;28.20;99.90;;;;;;5032530;28;20026;-65
2023/08/02 10:03:17;;;;;;;11.10;8.95;;;28.40;99.90;;;;;;5028426;28;20041;-66
2023/08/02 10:05:45;;;;;;;26.50;17.58;;;28.50;99.90;;;;;;5031949;28;20044;-65
2023/08/02 10:08:12;;;;;;;10.57;8.88;;;28.60;99.90;;;;;;5031299;28;20053;-76
2023/08/02 10:10:39;;;;;;;19.98;15.02;;;28.60;99.90;;;;;;5035232;28;20027;-77
2023/08/02 10:13:12;;;;;;;13.18;10.82;;;28.50;99.90;;;;;;5035040;28;20022;-77
2023/08/02 10:15:41;;;;;;;18.00;14.57;;;28.60;99.90;;;;;;5035336;28;20479;-76
2023/08/02 10:18:10;;;;;;;13.05;9.75;;;28.70;99.90;;;;;;5034432;28;20044;-76
2023/08/02 10:20:37;;;;;;;13.35;11.15;;;28.80;99.90;;;;;;5024786;28;20037;-76
2023/08/02 10:23:07;;;;;;;21.65;13.10;;;28.80;99.90;;;;;;5029072;28;20021;-76
2023/08/02 10:25:37;;;;;;;17.60;12.98;;;28.80;99.90;;;;;;5034504;28;20364;-76
2023/08/02 10:28:03;;;;;;;13.80;10.25;;;28.70;99.90;;;;;;5034302;28;20449;-76
2023/08/02 10:30:30;;;;;;;10.90;9.73;;;28.70;99.90;;;;;;5034338;28;20076;-76
2023/08/02 10:33:20;;;;;;;14.85;9.55;;;28.70;99.90;;;;;;5034518;28;20378;-76
2023/08/02 10:36:06;;;;;;;10.82;6.50;;;28.70;99.90;;;;;;5023207;28;20052;-76
2023/08/02 10:38:41;;;;;;;19.80;15.57;;;28.80;99.90;;;;;;5033184;28;20026;-76
2023/08/02 10:41:09;;;;;;;14.13;12.25;;;28.90;99.90;;;;;;5034437;28;20041;-76
2023/08/02 10:43:54;;;;;;;15.23;12.70;;;29.00;99.90;;;;;;5034164;28;20041;-76
2023/08/02 10:46:28;;;;;;;10.27;7.97;;;29.10;99.90;;;;;;5033818;28;20564;-77
2023/08/02 10:48:56;;;;;;;22.27;18.50;;;29.10;99.90;;;;;;5033852;28;20100;-76
2023/08/02 10:51:32;;;;;;;12.27;8.73;;;29.20;99.90;;;;;;5033949;28;20479;-76
2023/08/02 10:54:19;;;;;;;15.65;11.73;;;29.30;99.90;;;;;;5034087;28;20029;-76
2023/08/02 10:56:51;;;;;;;13.93;9.80;;;29.20;99.90;;;;;;5033845;28;20471;-76
2023/08/02 10:59:29;;;;;;;10.30;6.78;;;29.20;99.90;;;;;;5066521;28;20414;-77
2023/08/02 11:02:07;;;;;;;10.30;8.77;;;29.20;99.90;;;;;;5060510;28;20030;-77
2023/08/02 11:07:59;;;;;;;13.43;9.38;;;29.40;99.90;;;;;;5049319;28;20528;-77
2023/08/02 11:10:25;;;;;;;16.83;9.73;;;29.60;99.90;;;;;;5049109;28;20509;-77
2023/08/02 11:12:55;;;;;;;12.85;8.23;;;30.10;99.90;;;;;;5050053;28;20018;-76
2023/08/02 11:15:22;;;;;;;10.90;6.47;;;30.70;99.90;;;;;;5049941;28;20479;-77
2023/08/02 11:17:54;;;;;;;13.15;6.82;;;29.60;99.90;;;;;;5049905;28;20075;-77
2023/08/02 11:20:25;;;;;;;10.60;6.70;;;29.30;99.90;;;;;;5050170;28;20040;-77
2023/08/02 11:22:51;;;;;;;9.15;6.40;;;29.40;99.90;;;;;;5050130;28;20115;-77
2023/08/02 11:25:21;;;;;;;8.95;5.97;;;29.70;99.90;;;;;;5049821;28;20049;-74
2023/08/02 11:27:58;;;;;;;11.27;6.13;;;29.60;99.90;;;;;;5049732;28;20116;-74
2023/08/02 11:30:24;;;;;;;11.80;6.43;;;29.40;99.90;;;;;;5049808;28;20030;-75
2023/08/02 11:32:50;;;;;;;8.63;7.15;;;;;;;;;;5049599;28;20048;-74
2023/08/02 11:35:17;;;;;;;8.43;6.25;;;;;;;;;;5049710;28;20433;-74
2023/08/02 11:37:43;;;;;;;11.25;7.03;;;;;;;;;;5049861;28;20051;-76
2023/08/02 11:40:09;;;;;;;8.63;6.38;;;;;;;;;;5049514;28;20091;-78
2023/08/02 11:42:45;;;;;;;9.30;7.18;;;;;;;;;;5049523;28;20109;-77
2023/08/02 11:45:11;;;;;;;13.05;7.43;;;29.70;99.90;;;;;;5049483;28;20029;-78
2023/08/02 11:47:42;;;;;;;11.82;6.35;;;;;;;;;;5049653;28;20071;-77
2023/08/02 11:50:08;;;;;;;8.95;6.45;;;;;;;;;;5049419;28;20033;-77
2023/08/02 11:52:34;;;;;;;8.52;5.50;;;30.70;99.90;;;;;;5049368;28;20017;-77
2023/08/02 11:55:00;;;;;;;12.55;6.65;;;;;;;;;;5049463;28;20083;-78
2023/08/02 11:57:27;;;;;;;7.20;5.97;;;33.30;99.90;;;;;;5047580;28;20487;-77
2023/08/02 11:59:56;;;;;;;10.25;6.05;;;32.90;99.90;;;;;;5056417;28;20533;-77
2023/08/02 12:02:26;;;;;;;10.23;5.90;;;;;;;;;;5055626;28;20077;-74
2023/08/02 12:04:52;;;;;;;7.13;5.57;;;;;;;;;;5035474;28;20523;-74
2023/08/02 12:07:25;;;;;;;10.45;6.13;;;36.70;99.90;;;;;;5049369;28;20087;-74
2023/08/02 12:09:50;;;;;;;9.23;6.20;;;33.20;99.90;;;;;;5040683;28;20079;-74
2023/08/02 12:12:16;;;;;;;9.88;6.30;;;35.20;99.90;;;;;;5035696;28;20029;-75
2023/08/02 12:14:42;;;;;;;11.77;6.60;;;33.90;99.90;;;;;;5035732;28;20039;-75
2023/08/02 12:17:16;;;;;;;11.40;6.60;;;;;;;;;;5035374;28;20028;-75
2023/08/02 12:19:42;;;;;;;12.50;6.43;;;;;;;;;;5035543;28;20040;-75
2023/08/02 12:22:08;;;;;;;14.02;7.10;;;;;;;;;;5030168;28;20014;-74
2023/08/02 12:24:34;;;;;;;15.40;7.07;;;;;;;;;;5030019;28;20072;-74
2023/08/02 12:27:17;;;;;;;8.95;6.55;;;;;;;;;;5035349;28;20080;-73
2023/08/02 12:29:43;;;;;;;12.88;6.50;;;;;;;;;;5035260;28;20036;-75
2023/08/02 12:32:10;;;;;;;12.82;6.20;;;;;;;;;;5035685;28;20371;-75
2023/08/02 12:34:36;;;;;;;10.43;5.78;;;;;;;;;;5035384;28;20475;-75
2023/08/02 12:37:06;;;;;;;7.32;6.05;;;;;;;;;;5033813;28;20100;-76
2023/08/02 12:39:32;;;;;;;9.43;6.07;;;;;;;;;;5035274;28;20029;-75
2023/08/02 12:41:58;;;;;;;10.50;6.55;;;;;;;;;;5035129;28;20014;-76
2023/08/02 12:44:24;;;;;;;11.30;7.30;;;31.50;99.90;;;;;;5034958;28;20069;-76
2023/08/02 12:46:49;;;;;;;10.70;7.32;;;33.20;99.90;;;;;;5033758;28;20509;-76
2023/08/02 12:49:15;;;;;;;9.02;6.03;;;33.80;99.90;;;;;;5034965;28;20379;-76
2023/08/02 12:51:41;;;;;;;12.07;6.53;;;33.20;99.90;;;;;;5035386;28;20028;-76
2023/08/02 12:54:07;;;;;;;8.55;6.38;;;;;;;;;;5034939;28;20533;-76
2023/08/02 12:56:33;;;;;;;8.95;6.28;;;;;;;;;;5034954;28;20494;-76
2023/08/02 12:58:59;;;;;;;9.90;6.90;;;;;;;;;;5034722;28;20041;-76
2023/08/02 13:01:25;;;;;;;11.40;7.18;;;33.00;99.90;;;;;;5038720;28;20167;-76
2023/08/02 13:03:51;;;;;;;12.80;7.07;;;;;;;;;;5035237;28;20057;-75
2023/08/02 13:06:17;;;;;;;9.02;6.90;;;;;;;;;;5034659;28;20052;-75
2023/08/02 13:08:43;;;;;;;10.05;7.25;;;;;;;;;;5030699;28;20487;-74
2023/08/02 13:11:09;;;;;;;8.88;6.93;;;;;;;;;;5022060;28;20022;-74